sensor_id;sensor_type;location;lat;lon;timestamp;pressure;altitude;pressure_sealevel;temperature;humidity
57024;BME280;42916;54.346;18.562;2023-02-20T00:01:18;100210.08;;;3.38;91.28
57024;BME280;42916;54.346;18.562;2023-02-20T00:03:45;100213.84;;;3.42;91.30
57024;BME280;42916;54.346;18.562;2023-02-20T00:06:12;100209.05;;;3.43;90.85
57024;BME280;42916;54.346;18.562;2023-02-20T00:08:39;100201.58;;;3.43;90.60
57024;BME280;42916;54.346;18.562;2023-02-20T00:11:07;100206.70;;;3.46;90.38
57024;BME280;42916;54.346;18.562;2023-02-20T00:13:33;100204.63;;;3.48;90.02
57024;BME280;42916;54.346;18.562;2023-02-20T00:16:00;100197.89;;;3.48;90.17
57024;BME280;42916;54.346;18.562;2023-02-20T00:18:27;100188.63;;;3.46;89.90
57024;BME280;42916;54.346;18.562;2023-02-20T00:20:54;100187.39;;;3.45;89.74
57024;BME280;42916;54.346;18.562;2023-02-20T00:23:21;100185.27;;;3.41;89.59
57024;BME280;42916;54.346;18.562;2023-02-20T00:25:47;100174.67;;;3.39;89.65
57024;BME280;42916;54.346;18.562;2023-02-20T00:28:14;100174.62;;;3.39;89.26
57024;BME280;42916;54.346;18.562;2023-02-20T00:30:41;100173.22;;;3.39;89.66
57024;BME280;42916;54.346;18.562;2023-02-20T00:33:08;100174.71;;;3.39;89.47
57024;BME280;42916;54.346;18.562;2023-02-20T00:35:34;100172.72;;;3.39;89.59
57024;BME280;42916;54.346;18.562;2023-02-20T00:38:04;100179.59;;;3.38;89.52
57024;BME280;42916;54.346;18.562;2023-02-20T00:40:30;100180.62;;;3.39;89.10
57024;BME280;42916;54.346;18.562;2023-02-20T00:42:57;100187.13;;;3.40;89.43
57024;BME280;42916;54.346;18.562;2023-02-20T00:45:24;100183.15;;;3.40;89.43
57024;BME280;42916;54.346;18.562;2023-02-20T00:47:51;100184.22;;;3.38;89.46
57024;BME280;42916;54.346;18.562;2023-02-20T00:50:18;100183.92;;;3.38;89.14
57024;BME280;42916;54.346;18.562;2023-02-20T00:52:45;100168.91;;;3.39;89.29
57024;BME280;42916;54.346;18.562;2023-02-20T00:55:12;100161.47;;;3.40;89.11
57024;BME280;42916;54.346;18.562;2023-02-20T00:57:39;100158.66;;;3.40;89.17
57024;BME280;42916;54.346;18.562;2023-02-20T01:00:15;100162.60;;;3.38;89.13
57024;BME280;42916;54.346;18.562;2023-02-20T01:02:42;100169.02;;;3.37;88.89
57024;BME280;42916;54.346;18.562;2023-02-20T01:05:10;100171.95;;;3.37;88.73
57024;BME280;42916;54.346;18.562;2023-02-20T01:07:37;100183.59;;;3.37;88.74
57024;BME280;42916;54.346;18.562;2023-02-20T01:10:09;100185.77;;;3.40;88.55
57024;BME280;42916;54.346;18.562;2023-02-20T01:12:36;100197.58;;;3.41;88.60
57024;BME280;42916;54.346;18.562;2023-02-20T01:15:04;100198.64;;;3.42;88.20
57024;BME280;42916;54.346;18.562;2023-02-20T01:17:32;100188.27;;;3.42;88.14
57024;BME280;42916;54.346;18.562;2023-02-20T01:19:59;100178.77;;;3.41;88.16
57024;BME280;42916;54.346;18.562;2023-02-20T01:22:26;100163.87;;;3.41;87.84
57024;BME280;42916;54.346;18.562;2023-02-20T01:24:52;100160.39;;;3.42;88.00
57024;BME280;42916;54.346;18.562;2023-02-20T01:27:19;100154.44;;;3.42;88.08
57024;BME280;42916;54.346;18.562;2023-02-20T01:29:46;100155.38;;;3.41;87.80
57024;BME280;42916;54.346;18.562;2023-02-20T01:32:14;100157.13;;;3.41;87.91
57024;BME280;42916;54.346;18.562;2023-02-20T01:34:40;100154.98;;;3.39;87.72
57024;BME280;42916;54.346;18.562;2023-02-20T01:37:11;100158.66;;;3.38;87.35
57024;BME280;42916;54.346;18.562;2023-02-20T01:39:39;100164.42;;;3.38;87.20
57024;BME280;42916;54.346;18.562;2023-02-20T01:42:07;100156.46;;;3.38;87.32
57024;BME280;42916;54.346;18.562;2023-02-20T01:44:38;100150.88;;;3.39;87.14
57024;BME280;42916;54.346;18.562;2023-02-20T01:47:10;100139.13;;;3.38;86.81
57024;BME280;42916;54.346;18.562;2023-02-20T01:49:42;100137.77;;;3.38;86.42
57024;BME280;42916;54.346;18.562;2023-02-20T01:52:23;100133.34;;;3.38;85.81
57024;BME280;42916;54.346;18.562;2023-02-20T01:54:58;100130.07;;;3.39;85.75
57024;BME280;42916;54.346;18.562;2023-02-20T01:57:29;100124.98;;;3.38;85.65
57024;BME280;42916;54.346;18.562;2023-02-20T02:00:08;100121.45;;;3.37;85.75
57024;BME280;42916;54.346;18.562;2023-02-20T02:02:47;100122.61;;;3.35;85.46
57024;BME280;42916;54.346;18.562;2023-02-20T02:05:16;100113.16;;;3.32;85.38
57024;BME280;42916;54.346;18.562;2023-02-20T02:07:44;100108.90;;;3.30;85.53
57024;BME280;42916;54.346;18.562;2023-02-20T02:10:24;100108.38;;;3.28;85.91
57024;BME280;42916;54.346;18.562;2023-02-20T02:12:57;100101.77;;;3.25;85.93
57024;BME280;42916;54.346;18.562;2023-02-20T02:15:24;100091.70;;;3.23;85.95
57024;BME280;42916;54.346;18.562;2023-02-20T02:21:02;100088.61;;;3.17;86.13
57024;BME280;42916;54.346;18.562;2023-02-20T02:29:52;100093.42;;;3.16;86.60
57024;BME280;42916;54.346;18.562;2023-02-20T02:38:29;100090.15;;;3.09;86.76
57024;BME280;42916;54.346;18.562;2023-02-20T02:43:30;100084.41;;;3.05;87.62
57024;BME280;42916;54.346;18.562;2023-02-20T02:46:07;100089.14;;;3.02;87.64
57024;BME280;42916;54.346;18.562;2023-02-20T02:48:39;100086.55;;;3.00;88.18
57024;BME280;42916;54.346;18.562;2023-02-20T02:51:18;100084.89;;;2.99;88.02
57024;BME280;42916;54.346;18.562;2023-02-20T02:54:11;100077.83;;;2.98;88.19
57024;BME280;42916;54.346;18.562;2023-02-20T02:56:41;100084.27;;;2.98;88.52
57024;BME280;42916;54.346;18.562;2023-02-20T02:59:11;100070.59;;;2.97;88.46
57024;BME280;42916;54.346;18.562;2023-02-20T03:01:46;100063.16;;;2.97;88.66
57024;BME280;42916;54.346;18.562;2023-02-20T03:04:15;100065.56;;;2.95;88.77
57024;BME280;42916;54.346;18.562;2023-02-20T03:06:52;100063.87;;;2.94;88.53
57024;BME280;42916;54.346;18.562;2023-02-20T03:09:25;100061.31;;;2.95;88.47
57024;BME280;42916;54.346;18.562;2023-02-20T03:11:55;100055.23;;;2.96;89.03
57024;BME280;42916;54.346;18.562;2023-02-20T03:14:28;100052.14;;;2.95;88.95
57024;BME280;42916;54.346;18.562;2023-02-20T03:18:02;100042.79;;;2.93;88.78
57024;BME280;42916;54.346;18.562;2023-02-20T03:20:43;100040.70;;;2.91;88.90
57024;BME280;42916;54.346;18.562;2023-02-20T03:23:17;100038.21;;;2.89;88.92
57024;BME280;42916;54.346;18.562;2023-02-20T03:25:51;100030.63;;;2.89;88.88
57024;BME280;42916;54.346;18.562;2023-02-20T03:28:31;100030.45;;;2.87;89.18
57024;BME280;42916;54.346;18.562;2023-02-20T03:31:13;100027.79;;;2.85;88.92
57024;BME280;42916;54.346;18.562;2023-02-20T03:33:45;100024.66;;;2.80;88.99
57024;BME280;42916;54.346;18.562;2023-02-20T03:36:49;100023.00;;;2.74;89.52
57024;BME280;42916;54.346;18.562;2023-02-20T03:39:42;100019.95;;;2.70;89.64
57024;BME280;42916;54.346;18.562;2023-02-20T03:42:33;100019.85;;;2.67;89.96
57024;BME280;42916;54.346;18.562;2023-02-20T03:45:27;100026.73;;;2.62;90.58
57024;BME280;42916;54.346;18.562;2023-02-20T03:48:01;100028.59;;;2.57;90.65
57024;BME280;42916;54.346;18.562;2023-02-20T03:50:30;100030.60;;;2.51;91.06
57024;BME280;42916;54.346;18.562;2023-02-20T03:53:16;100026.73;;;2.45;90.75
57024;BME280;42916;54.346;18.562;2023-02-20T03:55:45;100023.98;;;2.41;90.64
57024;BME280;42916;54.346;18.562;2023-02-20T03:58:15;100022.30;;;2.35;91.30
57024;BME280;42916;54.346;18.562;2023-02-20T04:00:52;100026.94;;;2.27;92.14
57024;BME280;42916;54.346;18.562;2023-02-20T04:03:27;100023.52;;;2.19;92.37
57024;BME280;42916;54.346;18.562;2023-02-20T04:05:58;100017.18;;;2.13;93.44
57024;BME280;42916;54.346;18.562;2023-02-20T04:08:41;100009.44;;;2.07;93.54
57024;BME280;42916;54.346;18.562;2023-02-20T04:11:22;100006.97;;;2.01;93.70
57024;BME280;42916;54.346;18.562;2023-02-20T04:13:52;100002.73;;;1.97;94.15
57024;BME280;42916;54.346;18.562;2023-02-20T04:16:21;100000.42;;;1.93;94.40
57024;BME280;42916;54.346;18.562;2023-02-20T04:18:49;99991.63;;;1.88;94.30
57024;BME280;42916;54.346;18.562;2023-02-20T04:21:24;99982.94;;;1.83;94.33
57024;BME280;42916;54.346;18.562;2023-02-20T04:24:02;99977.70;;;1.78;94.91
57024;BME280;42916;54.346;18.562;2023-02-20T04:26:32;99965.70;;;1.75;94.55
57024;BME280;42916;54.346;18.562;2023-02-20T04:29:00;99955.71;;;1.71;94.79
57024;BME280;42916;54.346;18.562;2023-02-20T04:31:27;99954.06;;;1.64;95.25
57024;BME280;42916;54.346;18.562;2023-02-20T04:33:54;99957.59;;;1.58;95.15
57024;BME280;42916;54.346;18.562;2023-02-20T04:36:24;99953.05;;;1.52;95.59
57024;BME280;42916;54.346;18.562;2023-02-20T04:38:52;99951.73;;;1.47;95.54
57024;BME280;42916;54.346;18.562;2023-02-20T04:41:22;99947.70;;;1.42;95.40
57024;BME280;42916;54.346;18.562;2023-02-20T04:43:49;99935.36;;;1.39;95.44
57024;BME280;42916;54.346;18.562;2023-02-20T04:46:36;99931.33;;;1.35;95.53
57024;BME280;42916;54.346;18.562;2023-02-20T04:49:03;99926.99;;;1.32;95.87
57024;BME280;42916;54.346;18.562;2023-02-20T04:51:30;99927.19;;;1.27;95.91
57024;BME280;42916;54.346;18.562;2023-02-20T04:53:58;99919.38;;;1.23;95.92
57024;BME280;42916;54.346;18.562;2023-02-20T04:56:24;99905.39;;;1.22;96.06
57024;BME280;42916;54.346;18.562;2023-02-20T04:58:52;99901.27;;;1.21;96.24
57024;BME280;42916;54.346;18.562;2023-02-20T05:01:21;99900.66;;;1.22;96.22
57024;BME280;42916;54.346;18.562;2023-02-20T05:03:47;99897.89;;;1.22;96.57
57024;BME280;42916;54.346;18.562;2023-02-20T05:06:14;99891.46;;;1.24;96.74
57024;BME280;42916;54.346;18.562;2023-02-20T05:08:41;99890.10;;;1.24;96.96
57024;BME280;42916;54.346;18.562;2023-02-20T05:11:08;99883.70;;;1.27;96.69
57024;BME280;42916;54.346;18.562;2023-02-20T05:13:34;99876.41;;;1.30;96.56
57024;BME280;42916;54.346;18.562;2023-02-20T05:16:01;99872.33;;;1.34;97.22
57024;BME280;42916;54.346;18.562;2023-02-20T05:18:28;99862.27;;;1.38;97.09
57024;BME280;42916;54.346;18.562;2023-02-20T05:20:56;99863.13;;;1.40;97.02
57024;BME280;42916;54.346;18.562;2023-02-20T05:23:45;99858.46;;;1.43;97.06
57024;BME280;42916;54.346;18.562;2023-02-20T05:26:12;99863.08;;;1.46;97.29
57024;BME280;42916;54.346;18.562;2023-02-20T05:28:42;99851.02;;;1.49;97.40
57024;BME280;42916;54.346;18.562;2023-02-20T05:31:10;99840.51;;;1.53;97.52
57024;BME280;42916;54.346;18.562;2023-02-20T05:33:37;99828.95;;;1.57;97.37
57024;BME280;42916;54.346;18.562;2023-02-20T05:36:05;99822.25;;;1.61;97.33
57024;BME280;42916;54.346;18.562;2023-02-20T05:38:31;99814.78;;;1.63;97.16
57024;BME280;42916;54.346;18.562;2023-02-20T05:40:58;99816.17;;;1.66;97.51
57024;BME280;42916;54.346;18.562;2023-02-20T05:43:25;99817.48;;;1.68;97.43
57024;BME280;42916;54.346;18.562;2023-02-20T05:45:52;99817.63;;;1.71;97.23
57024;BME280;42916;54.346;18.562;2023-02-20T05:48:18;99816.73;;;1.75;97.20
57024;BME280;42916;54.346;18.562;2023-02-20T05:50:45;99804.27;;;1.77;97.41
57024;BME280;42916;54.346;18.562;2023-02-20T05:53:17;99805.08;;;1.78;97.51
57024;BME280;42916;54.346;18.562;2023-02-20T05:55:43;99800.13;;;1.77;97.28
57024;BME280;42916;54.346;18.562;2023-02-20T05:58:10;99794.61;;;1.76;97.67
57024;BME280;42916;54.346;18.562;2023-02-20T06:00:37;99792.13;;;1.76;97.43
57024;BME280;42916;54.346;18.562;2023-02-20T06:03:07;99780.04;;;1.77;97.51
57024;BME280;42916;54.346;18.562;2023-02-20T06:05:35;99761.56;;;1.76;97.49
57024;BME280;42916;54.346;18.562;2023-02-20T06:08:03;99754.34;;;1.76;97.60
57024;BME280;42916;54.346;18.562;2023-02-20T06:10:30;99745.73;;;1.74;97.82
57024;BME280;42916;54.346;18.562;2023-02-20T06:12:58;99738.40;;;1.73;97.83
57024;BME280;42916;54.346;18.562;2023-02-20T06:15:25;99728.25;;;1.71;97.93
57024;BME280;42916;54.346;18.562;2023-02-20T06:17:52;99734.32;;;1.70;98.20
57024;BME280;42916;54.346;18.562;2023-02-20T06:20:19;99735.72;;;1.70;98.19
57024;BME280;42916;54.346;18.562;2023-02-20T06:22:47;99728.95;;;1.71;98.24
57024;BME280;42916;54.346;18.562;2023-02-20T06:25:14;99721.69;;;1.72;98.09
57024;BME280;42916;54.346;18.562;2023-02-20T06:27:41;99717.65;;;1.70;98.27
57024;BME280;42916;54.346;18.562;2023-02-20T06:30:08;99705.91;;;1.68;98.26
57024;BME280;42916;54.346;18.562;2023-02-20T06:32:36;99704.71;;;1.68;98.29
57024;BME280;42916;54.346;18.562;2023-02-20T06:35:04;99699.63;;;1.69;98.22
57024;BME280;42916;54.346;18.562;2023-02-20T06:37:31;99687.02;;;1.68;98.34
57024;BME280;42916;54.346;18.562;2023-02-20T06:39:58;99668.91;;;1.68;98.38
57024;BME280;42916;54.346;18.562;2023-02-20T06:42:25;99661.25;;;1.67;98.74
57024;BME280;42916;54.346;18.562;2023-02-20T06:44:52;99659.60;;;1.66;98.88
57024;BME280;42916;54.346;18.562;2023-02-20T06:47:19;99667.85;;;1.66;98.87
57024;BME280;42916;54.346;18.562;2023-02-20T06:49:45;99661.45;;;1.67;98.88
57024;BME280;42916;54.346;18.562;2023-02-20T06:52:13;99652.83;;;1.67;99.11
57024;BME280;42916;54.346;18.562;2023-02-20T06:54:40;99645.77;;;1.66;98.85
57024;BME280;42916;54.346;18.562;2023-02-20T06:57:06;99645.98;;;1.66;98.62
57024;BME280;42916;54.346;18.562;2023-02-20T06:59:33;99643.23;;;1.66;99.04
57024;BME280;42916;54.346;18.562;2023-02-20T07:02:10;99637.59;;;1.64;99.13
57024;BME280;42916;54.346;18.562;2023-02-20T07:04:37;99639.45;;;1.60;99.36
57024;BME280;42916;54.346;18.562;2023-02-20T07:07:04;99632.58;;;1.59;99.03
57024;BME280;42916;54.346;18.562;2023-02-20T07:09:31;99632.83;;;1.58;99.07
57024;BME280;42916;54.346;18.562;2023-02-20T07:11:58;99616.88;;;1.57;99.49
57024;BME280;42916;54.346;18.562;2023-02-20T07:14:25;99614.27;;;1.57;99.45
57024;BME280;42916;54.346;18.562;2023-02-20T07:16:52;99607.63;;;1.55;99.47
57024;BME280;42916;54.346;18.562;2023-02-20T07:19:18;99598.23;;;1.51;99.46
57024;BME280;42916;54.346;18.562;2023-02-20T07:21:46;99587.07;;;1.48;99.43
57024;BME280;42916;54.346;18.562;2023-02-20T07:24:13;99571.23;;;1.45;99.53
57024;BME280;42916;54.346;18.562;2023-02-20T07:26:40;99561.45;;;1.43;99.65
57024;BME280;42916;54.346;18.562;2023-02-20T07:29:07;99552.24;;;1.42;99.70
57024;BME280;42916;54.346;18.562;2023-02-20T07:31:34;99537.59;;;1.41;99.84
57024;BME280;42916;54.346;18.562;2023-02-20T07:34:01;99525.83;;;1.39;100.00
57024;BME280;42916;54.346;18.562;2023-02-20T07:36:34;99519.15;;;1.38;100.00
57024;BME280;42916;54.346;18.562;2023-02-20T07:39:02;99506.30;;;1.37;100.00
57024;BME280;42916;54.346;18.562;2023-02-20T07:41:30;99490.77;;;1.37;100.00
57024;BME280;42916;54.346;18.562;2023-02-20T07:44:05;99491.08;;;1.38;100.00
57024;BME280;42916;54.346;18.562;2023-02-20T07:46:32;99490.61;;;1.39;100.00
57024;BME280;42916;54.346;18.562;2023-02-20T07:49:04;99487.67;;;1.39;100.00
57024;BME280;42916;54.346;18.562;2023-02-20T07:51:31;99472.39;;;1.39;100.00
57024;BME280;42916;54.346;18.562;2023-02-20T07:53:58;99463.56;;;1.39;100.00
57024;BME280;42916;54.346;18.562;2023-02-20T07:56:25;99457.34;;;1.39;100.00
57024;BME280;42916;54.346;18.562;2023-02-20T07:58:52;99450.61;;;1.40;100.00
57024;BME280;42916;54.346;18.562;2023-02-20T08:01:19;99439.23;;;1.40;100.00
57024;BME280;42916;54.346;18.562;2023-02-20T08:03:46;99427.23;;;1.40;100.00
57024;BME280;42916;54.346;18.562;2023-02-20T08:06:16;99409.44;;;1.39;100.00
57024;BME280;42916;54.346;18.562;2023-02-20T08:08:50;99402.03;;;1.37;100.00
57024;BME280;42916;54.346;18.562;2023-02-20T08:11:18;99395.09;;;1.36;100.00
57024;BME280;42916;54.346;18.562;2023-02-20T08:13:45;99383.38;;;1.36;100.00
57024;BME280;42916;54.346;18.562;2023-02-20T08:16:12;99381.97;;;1.35;100.00
57024;BME280;42916;54.346;18.562;2023-02-20T08:18:39;99372.58;;;1.35;100.00
57024;BME280;42916;54.346;18.562;2023-02-20T08:21:05;99366.28;;;1.34;100.00
57024;BME280;42916;54.346;18.562;2023-02-20T08:23:32;99364.75;;;1.33;100.00
57024;BME280;42916;54.346;18.562;2023-02-20T08:25:59;99355.66;;;1.32;100.00
57024;BME280;42916;54.346;18.562;2023-02-20T08:28:28;99349.25;;;1.33;100.00
57024;BME280;42916;54.346;18.562;2023-02-20T08:30:55;99336.44;;;1.33;100.00
57024;BME280;42916;54.346;18.562;2023-02-20T08:33:22;99321.67;;;1.33;100.00
57024;BME280;42916;54.346;18.562;2023-02-20T08:35:48;99314.04;;;1.36;100.00
57024;BME280;42916;54.346;18.562;2023-02-20T08:38:32;99286.48;;;1.37;100.00
57024;BME280;42916;54.346;18.562;2023-02-20T08:41:05;99277.91;;;1.37;100.00
57024;BME280;42916;54.346;18.562;2023-02-20T08:43:34;99284.19;;;1.40;100.00
57024;BME280;42916;54.346;18.562;2023-02-20T08:46:02;99277.98;;;1.44;100.00
57024;BME280;42916;54.346;18.562;2023-02-20T08:48:29;99260.13;;;1.49;100.00
57024;BME280;42916;54.346;18.562;2023-02-20T08:50:56;99231.45;;;1.55;100.00
57024;BME280;42916;54.346;18.562;2023-02-20T08:53:23;99225.64;;;1.64;100.00
57024;BME280;42916;54.346;18.562;2023-02-20T08:55:49;99198.95;;;1.72;100.00
57024;BME280;42916;54.346;18.562;2023-02-20T08:58:20;99163.32;;;1.79;100.00
57024;BME280;42916;54.346;18.562;2023-02-20T09:00:48;99123.59;;;1.88;100.00
57024;BME280;42916;54.346;18.562;2023-02-20T09:03:16;99101.34;;;1.97;100.00
57024;BME280;42916;54.346;18.562;2023-02-20T09:05:43;99120.88;;;2.04;100.00
57024;BME280;42916;54.346;18.562;2023-02-20T09:08:10;99151.23;;;2.10;100.00
57024;BME280;42916;54.346;18.562;2023-02-20T09:10:37;99138.70;;;2.16;100.00
57024;BME280;42916;54.346;18.562;2023-02-20T09:13:03;99132.55;;;2.22;100.00
57024;BME280;42916;54.346;18.562;2023-02-20T09:15:30;99121.84;;;2.31;100.00
57024;BME280;42916;54.346;18.562;2023-02-20T09:18:01;99118.00;;;2.38;100.00
57024;BME280;42916;54.346;18.562;2023-02-20T09:20:28;99107.73;;;2.45;100.00
57024;BME280;42916;54.346;18.562;2023-02-20T09:22:57;99111.50;;;2.50;100.00
57024;BME280;42916;54.346;18.562;2023-02-20T09:25:25;99105.36;;;2.57;100.00
57024;BME280;42916;54.346;18.562;2023-02-20T09:27:51;99086.79;;;2.65;100.00
57024;BME280;42916;54.346;18.562;2023-02-20T09:30:20;99073.77;;;2.71;100.00
57024;BME280;42916;54.346;18.562;2023-02-20T09:32:48;99062.48;;;2.78;100.00
57024;BME280;42916;54.346;18.562;2023-02-20T09:35:18;99058.04;;;2.85;100.00
57024;BME280;42916;54.346;18.562;2023-02-20T09:37:46;99049.95;;;2.89;100.00
57024;BME280;42916;54.346;18.562;2023-02-20T09:40:14;99034.95;;;2.91;100.00
57024;BME280;42916;54.346;18.562;2023-02-20T09:45:30;99039.02;;;3.00;100.00
57024;BME280;42916;54.346;18.562;2023-02-20T09:51:08;99040.69;;;3.04;100.00
57024;BME280;42916;54.346;18.562;2023-02-20T09:56:13;99032.36;;;3.06;100.00
57024;BME280;42916;54.346;18.562;2023-02-20T10:01:58;99016.17;;;3.14;100.00
57024;BME280;42916;54.346;18.562;2023-02-20T10:04:34;99006.42;;;3.16;100.00
57024;BME280;42916;54.346;18.562;2023-02-20T10:07:20;99004.20;;;3.18;100.00
57024;BME280;42916;54.346;18.562;2023-02-20T10:09:49;99000.59;;;3.20;100.00
57024;BME280;42916;54.346;18.562;2023-02-20T10:20:40;98993.34;;;3.33;100.00
57024;BME280;42916;54.346;18.562;2023-02-20T10:25:59;98952.75;;;3.40;100.00
57024;BME280;42916;54.346;18.562;2023-02-20T10:28:28;98944.56;;;3.45;100.00
57024;BME280;42916;54.346;18.562;2023-02-20T10:34:26;98920.79;;;3.50;100.00
57024;BME280;42916;54.346;18.562;2023-02-20T10:37:13;98909.75;;;3.58;100.00
57024;BME280;42916;54.346;18.562;2023-02-20T10:39:51;98899.14;;;3.64;100.00
57024;BME280;42916;54.346;18.562;2023-02-20T10:42:31;98893.86;;;3.71;100.00
57024;BME280;42916;54.346;18.562;2023-02-20T10:50:00;98876.20;;;3.97;100.00
57024;BME280;42916;54.346;18.562;2023-02-20T10:52:33;98865.77;;;4.06;100.00
57024;BME280;42916;54.346;18.562;2023-02-20T10:55:08;98857.40;;;4.13;100.00
57024;BME280;42916;54.346;18.562;2023-02-20T10:57:41;98850.77;;;4.21;100.00
57024;BME280;42916;54.346;18.562;2023-02-20T11:00:22;98840.99;;;4.28;100.00
57024;BME280;42916;54.346;18.562;2023-02-20T11:02:56;98836.70;;;4.36;100.00
57024;BME280;42916;54.346;18.562;2023-02-20T11:05:27;98833.94;;;4.43;100.00
57024;BME280;42916;54.346;18.562;2023-02-20T11:07:56;98819.73;;;4.48;100.00
57024;BME280;42916;54.346;18.562;2023-02-20T11:10:24;98816.27;;;4.54;100.00
57024;BME280;42916;54.346;18.562;2023-02-20T11:12:56;98818.88;;;4.62;100.00
57024;BME280;42916;54.346;18.562;2023-02-20T11:15:28;98819.27;;;4.69;100.00
57024;BME280;42916;54.346;18.562;2023-02-20T11:17:57;98807.32;;;4.76;100.00
57024;BME280;42916;54.346;18.562;2023-02-20T11:20:43;98817.66;;;4.82;100.00
57024;BME280;42916;54.346;18.562;2023-02-20T11:23:34;98804.55;;;4.94;100.00
57024;BME280;42916;54.346;18.562;2023-02-20T11:26:16;98804.19;;;5.01;100.00
57024;BME280;42916;54.346;18.562;2023-02-20T11:31:28;98788.01;;;5.22;100.00
57024;BME280;42916;54.346;18.562;2023-02-20T11:34:02;98780.02;;;5.31;100.00
57024;BME280;42916;54.346;18.562;2023-02-20T11:36:41;98777.58;;;5.36;100.00
57024;BME280;42916;54.346;18.562;2023-02-20T11:39:23;98780.46;;;5.43;100.00
57024;BME280;42916;54.346;18.562;2023-02-20T11:42:04;98763.16;;;5.52;100.00
57024;BME280;42916;54.346;18.562;2023-02-20T11:44:32;98761.69;;;5.62;100.00
57024;BME280;42916;54.346;18.562;2023-02-20T11:47:25;98767.86;;;5.67;100.00
57024;BME280;42916;54.346;18.562;2023-02-20T11:50:16;98760.38;;;5.74;100.00
57024;BME280;42916;54.346;18.562;2023-02-20T11:53:04;98763.23;;;5.80;100.00
57024;BME280;42916;54.346;18.562;2023-02-20T11:55:33;98740.94;;;5.82;100.00
57024;BME280;42916;54.346;18.562;2023-02-20T11:58:01;98749.30;;;5.82;100.00
57024;BME280;42916;54.346;18.562;2023-02-20T12:00:43;98758.27;;;5.85;100.00
57024;BME280;42916;54.346;18.562;2023-02-20T12:03:23;98754.23;;;5.87;100.00
57024;BME280;42916;54.346;18.562;2023-02-20T12:05:50;98738.94;;;5.83;100.00
57024;BME280;42916;54.346;18.562;2023-02-20T12:08:41;98734.17;;;5.80;100.00
57024;BME280;42916;54.346;18.562;2023-02-20T12:11:19;98733.67;;;5.76;100.00
57024;BME280;42916;54.346;18.562;2023-02-20T12:13:49;98715.28;;;5.77;100.00
57024;BME280;42916;54.346;18.562;2023-02-20T12:16:36;98701.79;;;5.78;100.00
57024;BME280;42916;54.346;18.562;2023-02-20T12:22:12;98701.53;;;5.83;100.00
57024;BME280;42916;54.346;18.562;2023-02-20T12:35:32;98684.11;;;5.95;100.00
57024;BME280;42916;54.346;18.562;2023-02-20T12:46:30;98660.16;;;6.10;100.00
57024;BME280;42916;54.346;18.562;2023-02-20T12:49:15;98680.58;;;6.14;100.00
57024;BME280;42916;54.346;18.562;2023-02-20T12:52:11;98657.41;;;6.18;100.00
57024;BME280;42916;54.346;18.562;2023-02-20T12:54:53;98647.33;;;6.20;100.00
57024;BME280;42916;54.346;18.562;2023-02-20T13:00:31;98650.30;;;6.29;100.00
57024;BME280;42916;54.346;18.562;2023-02-20T13:03:06;98647.81;;;6.32;100.00
57024;BME280;42916;54.346;18.562;2023-02-20T13:05:39;98634.52;;;6.34;100.00
57024;BME280;42916;54.346;18.562;2023-02-20T13:08:28;98637.29;;;6.34;100.00
57024;BME280;42916;54.346;18.562;2023-02-20T13:11:00;98644.04;;;6.36;100.00
57024;BME280;42916;54.346;18.562;2023-02-20T13:16:31;98662.18;;;6.35;100.00
57024;BME280;42916;54.346;18.562;2023-02-20T13:19:16;98663.75;;;6.33;100.00
57024;BME280;42916;54.346;18.562;2023-02-20T13:21:45;98641.88;;;6.32;100.00
57024;BME280;42916;54.346;18.562;2023-02-20T13:26:51;98644.09;;;6.33;100.00
57024;BME280;42916;54.346;18.562;2023-02-20T13:29:24;98625.98;;;6.34;100.00
57024;BME280;42916;54.346;18.562;2023-02-20T13:32:43;98620.59;;;6.34;100.00
57024;BME280;42916;54.346;18.562;2023-02-20T13:34:45;98614.91;;;6.33;100.00
57024;BME280;42916;54.346;18.562;2023-02-20T13:48:50;98610.83;;;6.30;100.00
57024;BME280;42916;54.346;18.562;2023-02-20T13:56:27;98628.96;;;6.33;100.00
57024;BME280;42916;54.346;18.562;2023-02-20T13:58:56;98642.90;;;6.36;100.00
57024;BME280;42916;54.346;18.562;2023-02-20T14:01:24;98646.90;;;6.39;100.00
57024;BME280;42916;54.346;18.562;2023-02-20T14:04:02;98630.30;;;6.40;100.00
57024;BME280;42916;54.346;18.562;2023-02-20T14:06:29;98630.79;;;6.40;100.00
57024;BME280;42916;54.346;18.562;2023-02-20T14:09:12;98643.92;;;6.40;100.00
57024;BME280;42916;54.346;18.562;2023-02-20T14:11:41;98638.41;;;6.41;100.00
57024;BME280;42916;54.346;18.562;2023-02-20T14:14:15;98643.44;;;6.43;100.00
57024;BME280;42916;54.346;18.562;2023-02-20T14:16:47;98636.41;;;6.42;100.00
57024;BME280;42916;54.346;18.562;2023-02-20T14:19:21;98634.90;;;6.43;100.00
57024;BME280;42916;54.346;18.562;2023-02-20T14:21:49;98635.12;;;6.44;100.00
57024;BME280;42916;54.346;18.562;2023-02-20T14:26:45;98610.54;;;6.49;100.00
57024;BME280;42916;54.346;18.562;2023-02-20T14:29:21;98617.11;;;6.53;100.00
57024;BME280;42916;54.346;18.562;2023-02-20T14:31:50;98605.39;;;6.56;100.00
57024;BME280;42916;54.346;18.562;2023-02-20T14:34:31;98602.52;;;6.57;100.00
57024;BME280;42916;54.346;18.562;2023-02-20T14:42:14;98605.52;;;6.64;100.00
57024;BME280;42916;54.346;18.562;2023-02-20T14:44:41;98598.66;;;6.64;100.00
57024;BME280;42916;54.346;18.562;2023-02-20T14:47:12;98595.70;;;6.65;100.00
57024;BME280;42916;54.346;18.562;2023-02-20T14:49:40;98585.64;;;6.66;100.00
57024;BME280;42916;54.346;18.562;2023-02-20T14:54:39;98569.91;;;6.69;100.00
57024;BME280;42916;54.346;18.562;2023-02-20T14:57:11;98563.15;;;6.72;100.00
57024;BME280;42916;54.346;18.562;2023-02-20T14:59:38;98570.93;;;6.70;100.00
57024;BME280;42916;54.346;18.562;2023-02-20T15:05:09;98568.01;;;6.73;100.00
57024;BME280;42916;54.346;18.562;2023-02-20T15:07:39;98558.00;;;6.74;100.00